createdAt,value
2018-12-27T00:00:43.809Z,28.67
2018-12-27T00:03:11.365Z,29.87
2018-12-27T00:05:38.753Z,28.07
2018-12-27T00:08:06.288Z,29.47
2018-12-27T00:10:33.748Z,30.03
2018-12-27T00:13:01.230Z,30.63
2018-12-27T00:15:28.813Z,31.57
2018-12-27T00:17:56.328Z,30.17
2018-12-27T00:20:23.869Z,28.13
2018-12-27T00:22:51.502Z,27.23
2018-12-27T00:25:20.606Z,27.83
2018-12-27T00:27:48.115Z,26.00
2018-12-27T00:30:15.932Z,25.03
2018-12-27T00:32:44.863Z,25.50
2018-12-27T00:35:12.525Z,26.00
2018-12-27T00:37:42.216Z,24.30
2018-12-27T00:40:09.625Z,25.70
2018-12-27T00:42:38.473Z,25.23
2018-12-27T00:45:06.295Z,26.37
2018-12-27T00:47:33.943Z,26.97
2018-12-27T00:50:01.562Z,27.20
2018-12-27T00:52:30.297Z,27.03
2018-12-27T00:54:59.047Z,27.07
2018-12-27T00:57:30.865Z,29.03
2018-12-27T00:59:58.730Z,26.90
2018-12-27T01:02:28.069Z,26.03
2018-12-27T01:04:59.768Z,26.20
2018-12-27T01:07:27.415Z,25.27
2018-12-27T01:09:57.043Z,25.93
2018-12-27T01:12:24.436Z,24.37
2018-12-27T01:14:52.192Z,26.07
2018-12-27T01:17:19.810Z,25.17
2018-12-27T01:19:47.383Z,24.30
2018-12-27T01:22:15.001Z,23.93
2018-12-27T01:24:42.587Z,24.37
2018-12-27T01:27:11.897Z,23.57
2018-12-27T01:29:39.704Z,23.77
2018-12-27T01:32:07.286Z,22.00
2018-12-27T01:34:37.583Z,21.60
2018-12-27T01:37:05.278Z,22.23
2018-12-27T01:39:33.013Z,21.53
2018-12-27T01:42:00.721Z,22.67
2018-12-27T01:44:28.428Z,23.30
2018-12-27T01:46:56.102Z,22.87
2018-12-27T01:49:23.713Z,22.70
2018-12-27T01:51:51.939Z,22.03
2018-12-27T01:54:19.645Z,23.40
2018-12-27T01:56:47.331Z,24.00
2018-12-27T01:59:17.373Z,22.33
2018-12-27T02:01:45.033Z,24.53
2018-12-27T02:04:15.786Z,23.30
2018-12-27T02:06:43.195Z,21.97
2018-12-27T02:09:10.853Z,20.40
2018-12-27T02:11:38.409Z,21.73
2018-12-27T02:14:06.099Z,25.17
2018-12-27T02:16:33.747Z,23.80
2018-12-27T02:19:02.221Z,22.03
2018-12-27T02:21:29.878Z,22.50
2018-12-27T02:24:00.308Z,23.77
2018-12-27T02:26:28.099Z,23.83
2018-12-27T02:28:55.755Z,23.63
2018-12-27T02:31:24.803Z,23.53
2018-12-27T02:33:52.517Z,22.60
2018-12-27T02:36:21.420Z,22.40
2018-12-27T02:38:49.053Z,22.40
2018-12-27T02:41:16.796Z,23.37
2018-12-27T02:43:47.187Z,25.43
2018-12-27T02:46:14.770Z,24.77
2018-12-27T02:48:42.359Z,22.30
2018-12-27T02:51:10.066Z,21.77
2018-12-27T02:53:37.731Z,23.23
2018-12-27T02:56:05.338Z,22.40
2018-12-27T02:58:33.016Z,19.70
2018-12-27T03:01:02.936Z,21.07
2018-12-27T03:03:30.620Z,21.77
2018-12-27T03:05:58.239Z,20.37
2018-12-27T03:08:25.940Z,21.17
2018-12-27T03:10:53.589Z,20.80
2018-12-27T03:13:21.441Z,20.80
2018-12-27T03:15:49.120Z,21.73
2018-12-27T03:18:16.771Z,20.47
2018-12-27T03:20:44.523Z,19.60
2018-12-27T03:23:12.104Z,19.63
2018-12-27T03:25:39.861Z,20.50
2018-12-27T03:28:07.529Z,18.70
2018-12-27T03:30:35.202Z,20.70
2018-12-27T03:33:02.898Z,19.93
2018-12-27T03:35:30.660Z,19.43
2018-12-27T03:37:58.248Z,19.60
2018-12-27T03:40:25.956Z,19.37
2018-12-27T03:42:53.672Z,19.00
2018-12-27T03:45:21.344Z,19.03
2018-12-27T03:47:48.965Z,19.40
2018-12-27T03:50:19.501Z,18.77
2018-12-27T03:52:47.226Z,18.00
2018-12-27T03:55:14.898Z,19.20
2018-12-27T03:57:42.614Z,18.53
2018-12-27T04:00:10.288Z,18.23
2018-12-27T04:02:37.927Z,17.17
2018-12-27T04:05:05.483Z,16.90
2018-12-27T04:07:33.160Z,17.10
2018-12-27T04:10:00.767Z,17.20
2018-12-27T04:12:28.494Z,18.30
2018-12-27T04:14:57.560Z,18.43
2018-12-27T04:17:27.554Z,20.53
2018-12-27T04:19:55.034Z,18.60
2018-12-27T04:22:22.455Z,18.00
2018-12-27T04:24:50.015Z,18.40
2018-12-27T04:27:17.493Z,20.83
2018-12-27T04:29:45.044Z,19.87
2018-12-27T04:32:14.467Z,19.87
2018-12-27T04:34:41.595Z,20.03
2018-12-27T04:37:09.076Z,18.93
2018-12-27T04:39:36.490Z,19.10
2018-12-27T04:42:03.969Z,18.00
2018-12-27T04:44:34.146Z,18.90
2018-12-27T04:47:01.569Z,19.50
2018-12-27T04:49:29.101Z,17.33
2018-12-27T04:51:56.700Z,18.57
2018-12-27T04:54:24.139Z,18.70
2018-12-27T04:56:51.666Z,18.60
2018-12-27T04:59:19.093Z,21.70
2018-12-27T05:01:46.487Z,27.83
2018-12-27T05:04:18.107Z,34.73
2018-12-27T05:06:43.255Z,32.53
2018-12-27T05:09:10.715Z,35.37
2018-12-27T05:11:38.361Z,35.43
2018-12-27T05:14:05.922Z,34.67
2018-12-27T05:16:33.487Z,33.80
2018-12-27T05:19:00.950Z,31.97
2018-12-27T05:21:28.442Z,30.80
2018-12-27T05:23:55.918Z,29.97
2018-12-27T05:26:23.380Z,28.07
2018-12-27T05:28:50.775Z,30.17
2018-12-27T05:31:18.166Z,28.73
2018-12-27T05:33:45.729Z,26.80
2018-12-27T05:36:16.972Z,28.03
2018-12-27T05:38:44.494Z,27.57
2018-12-27T05:41:12.098Z,27.83
2018-12-27T05:43:39.644Z,28.83
2018-12-27T05:46:07.174Z,29.63
2018-12-27T05:48:34.747Z,28.87
2018-12-27T05:51:03.936Z,29.43
2018-12-27T05:53:31.395Z,29.07
2018-12-27T05:55:58.936Z,27.97
2018-12-27T05:58:26.428Z,29.00
2018-12-27T06:00:53.845Z,28.23
2018-12-27T06:03:25.505Z,29.53
2018-12-27T06:06:03.434Z,29.00
2018-12-27T06:08:31.105Z,31.90
2018-12-27T06:10:58.504Z,31.23
2018-12-27T06:13:27.647Z,35.20
2018-12-27T06:15:55.238Z,37.43
2018-12-27T06:18:22.819Z,39.33
2018-12-27T06:20:52.649Z,37.17
2018-12-27T06:23:20.624Z,37.37
2018-12-27T06:25:48.159Z,33.57
2018-12-27T06:28:17.233Z,29.97
2018-12-27T06:30:44.769Z,30.10
2018-12-27T06:33:12.251Z,30.67
2018-12-27T06:35:39.655Z,29.03
2018-12-27T06:38:08.282Z,25.93
2018-12-27T06:40:35.851Z,30.03
2018-12-27T06:43:04.890Z,28.07
2018-12-27T06:45:35.053Z,29.43
2018-12-27T06:48:02.499Z,26.17
2018-12-27T06:50:32.515Z,27.50
2018-12-27T06:53:01.826Z,29.43
2018-12-27T06:55:29.335Z,31.07
2018-12-27T06:57:56.770Z,30.40
2018-12-27T07:00:24.361Z,27.77
2018-12-27T07:02:51.810Z,26.70
2018-12-27T07:05:26.383Z,25.13
2018-12-27T07:07:56.061Z,22.87
2018-12-27T07:10:23.307Z,24.33
2018-12-27T07:12:50.707Z,23.47
2018-12-27T07:15:18.205Z,21.47
2018-12-27T07:17:46.028Z,21.60
2018-12-27T07:20:13.426Z,20.10
2018-12-27T07:22:40.994Z,21.23
2018-12-27T07:25:08.416Z,21.00
2018-12-27T07:27:35.811Z,22.17
2018-12-27T07:30:03.233Z,21.63
2018-12-27T07:32:30.672Z,21.37
2018-12-27T07:34:58.102Z,22.40
2018-12-27T07:37:25.613Z,23.00
2018-12-27T07:39:53.041Z,23.57
2018-12-27T07:42:20.506Z,23.03
2018-12-27T07:44:47.966Z,24.47
2018-12-27T07:47:15.425Z,25.00
2018-12-27T07:49:42.969Z,24.30
2018-12-27T07:52:10.496Z,22.97
2018-12-27T07:54:37.977Z,24.00
2018-12-27T07:57:11.222Z,23.47
2018-12-27T07:59:39.575Z,24.43
2018-12-27T08:02:07.078Z,23.67
2018-12-27T08:04:34.436Z,24.33
2018-12-27T08:07:03.561Z,26.20
2018-12-27T08:09:31.058Z,24.17
2018-12-27T08:11:58.476Z,25.10
2018-12-27T08:14:25.991Z,23.37
2018-12-27T08:16:53.434Z,26.00
2018-12-27T08:19:20.884Z,26.70
2018-12-27T08:21:48.958Z,29.30
2018-12-27T08:24:16.539Z,27.57
2018-12-27T08:26:45.698Z,29.57
2018-12-27T08:29:13.261Z,27.80
2018-12-27T08:31:45.078Z,26.70
2018-12-27T08:34:09.910Z,26.27
2018-12-27T08:36:37.426Z,27.70
2018-12-27T08:39:05.703Z,26.97
2018-12-27T08:41:33.106Z,27.40
2018-12-27T08:44:00.614Z,27.33
2018-12-27T08:46:28.019Z,28.83
2018-12-27T08:48:58.444Z,28.73
2018-12-27T08:51:26.258Z,32.70
2018-12-27T08:53:53.658Z,29.50
2018-12-27T08:56:21.116Z,28.37
2018-12-27T08:58:48.651Z,24.73
2018-12-27T09:01:17.314Z,23.07
2018-12-27T09:03:44.895Z,24.97
2018-12-27T09:06:12.392Z,25.70
2018-12-27T09:08:39.902Z,25.70
2018-12-27T09:11:07.813Z,25.47
2018-12-27T09:13:35.346Z,25.77
2018-12-27T09:16:02.844Z,27.30
2018-12-27T09:18:30.431Z,30.00
2018-12-27T09:20:58.783Z,31.87
2018-12-27T09:23:28.028Z,33.87
2018-12-27T09:25:57.559Z,33.07
2018-12-27T09:28:26.975Z,33.77
2018-12-27T09:30:56.787Z,33.03
2018-12-27T09:33:28.238Z,31.33
2018-12-27T09:35:55.646Z,30.20
2018-12-27T09:38:22.990Z,32.37
2018-12-27T09:40:53.691Z,35.17
2018-12-27T09:43:21.166Z,37.40
2018-12-27T09:45:48.617Z,35.23
2018-12-27T09:48:15.891Z,35.43
2018-12-27T09:50:45.564Z,36.00
2018-12-27T09:53:14.040Z,34.10
2018-12-27T09:55:41.431Z,35.83
2018-12-27T09:58:08.926Z,38.10
2018-12-27T10:00:36.319Z,40.97
2018-12-27T10:03:03.876Z,38.40
2018-12-27T10:05:34.031Z,38.50
2018-12-27T10:08:01.753Z,37.67
2018-12-27T10:10:29.421Z,36.83
2018-12-27T10:12:56.876Z,40.47
2018-12-27T10:15:24.398Z,41.73
2018-12-27T10:20:20.818Z,40.93
2018-12-27T10:22:48.338Z,40.37
2018-12-27T10:25:15.900Z,41.43
2018-12-27T10:27:43.495Z,40.27
2018-12-27T10:30:10.980Z,40.20
2018-12-27T10:32:38.526Z,40.00
2018-12-27T10:35:08.466Z,40.37
2018-12-27T10:37:35.970Z,37.53
2018-12-27T10:40:05.100Z,41.10
2018-12-27T10:42:38.560Z,40.57
2018-12-27T10:45:07.595Z,43.60
2018-12-27T10:55:41.044Z,43.43
2018-12-27T10:58:08.492Z,44.13
2018-12-27T11:00:36.081Z,43.93
2018-12-27T11:03:04.542Z,43.13
2018-12-27T11:05:32.034Z,41.43
2018-12-27T11:07:59.580Z,40.47
2018-12-27T11:10:28.897Z,39.67
2018-12-27T11:15:33.278Z,40.23
2018-12-27T11:18:01.983Z,36.67
2018-12-27T11:20:32.447Z,36.83
2018-12-27T11:23:04.924Z,40.67
2018-12-27T11:25:32.401Z,41.40
2018-12-27T11:28:00.042Z,42.40
2018-12-27T11:30:27.557Z,42.90
2018-12-27T11:32:56.597Z,47.20
2018-12-27T11:35:24.095Z,42.53
2018-12-27T11:37:51.665Z,44.40
2018-12-27T11:40:19.316Z,45.10
2018-12-27T11:42:48.346Z,46.70
2018-12-27T11:45:15.901Z,47.13
2018-12-27T11:47:43.372Z,44.67
2018-12-27T11:50:10.843Z,47.63
2018-12-27T11:52:38.269Z,44.23
2018-12-27T11:55:07.333Z,42.97
2018-12-27T11:57:36.641Z,45.67
2018-12-27T12:00:05.533Z,51.83
2018-12-27T12:02:32.879Z,48.43
2018-12-27T12:05:01.831Z,45.93
2018-12-27T12:07:29.241Z,44.93
2018-12-27T12:09:56.710Z,44.57
2018-12-27T12:12:25.747Z,45.57
2018-12-27T12:14:53.561Z,45.40
2018-12-27T12:17:20.921Z,45.53
2018-12-27T12:19:48.349Z,45.43
2018-12-27T12:22:15.801Z,45.30
2018-12-27T12:24:43.329Z,43.67
2018-12-27T12:27:10.751Z,42.07
2018-12-27T12:29:38.311Z,42.67
2018-12-27T12:32:05.716Z,40.90
2018-12-27T12:34:33.127Z,43.27
2018-12-27T12:37:03.479Z,44.90
2018-12-27T12:39:35.346Z,42.87
2018-12-27T12:42:02.804Z,42.00
2018-12-27T12:44:31.655Z,42.43
2018-12-27T12:47:06.532Z,39.87
2018-12-27T12:49:35.310Z,42.80
2018-12-27T12:52:02.773Z,43.10
2018-12-27T12:54:30.334Z,44.30
2018-12-27T12:56:59.446Z,46.30
2018-12-27T12:59:27.086Z,45.77
2018-12-27T13:01:54.556Z,47.17
2018-12-27T13:04:22.127Z,49.47
2018-12-27T13:06:49.641Z,44.03
2018-12-27T13:09:17.027Z,44.30
2018-12-27T13:11:44.694Z,47.67
2018-12-27T13:14:14.601Z,41.57
2018-12-27T13:16:42.317Z,42.47
2018-12-27T13:19:09.827Z,41.43
2018-12-27T13:21:37.278Z,42.90
2018-12-27T13:24:04.638Z,42.97
2018-12-27T13:26:32.109Z,43.17
2018-12-27T13:28:59.531Z,42.13
2018-12-27T13:31:26.929Z,43.90
2018-12-27T13:33:54.418Z,43.33
2018-12-27T13:36:25.325Z,45.20
2018-12-27T13:38:50.850Z,46.93
2018-12-27T13:41:18.394Z,48.97
2018-12-27T13:43:47.777Z,46.23
2018-12-27T13:46:15.235Z,47.13
2018-12-27T13:48:42.859Z,46.03
2018-12-27T13:51:10.374Z,49.33
2018-12-27T13:53:37.779Z,48.87
2018-12-27T13:56:05.208Z,48.13
2018-12-27T13:58:32.701Z,46.33
2018-12-27T14:01:00.157Z,45.77
2018-12-27T14:03:27.650Z,45.57
2018-12-27T14:05:55.076Z,50.23
2018-12-27T14:08:23.542Z,48.97
2018-12-27T14:10:50.944Z,52.30
2018-12-27T14:13:18.378Z,49.10
2018-12-27T14:15:45.890Z,46.97
2018-12-27T14:18:13.534Z,49.03
2018-12-27T14:20:40.874Z,47.67
2018-12-27T14:23:08.342Z,49.20
2018-12-27T14:25:35.782Z,47.73
2018-12-27T14:28:03.252Z,50.37
2018-12-27T14:30:30.594Z,47.63
2018-12-27T14:32:58.050Z,47.03
2018-12-27T14:35:25.508Z,46.67
2018-12-27T14:37:52.936Z,46.67
2018-12-27T14:40:20.488Z,48.90
2018-12-27T14:42:48.088Z,47.60
2018-12-27T14:45:15.646Z,49.20
2018-12-27T14:47:43.302Z,50.70
2018-12-27T14:50:10.702Z,50.63
2018-12-27T14:52:38.702Z,52.23
2018-12-27T14:55:06.160Z,53.93
2018-12-27T14:57:33.628Z,55.43
2018-12-27T15:00:04.034Z,56.97
2018-12-27T15:02:31.498Z,58.37
2018-12-27T15:04:58.867Z,53.30
2018-12-27T15:07:27.926Z,53.40
2018-12-27T15:09:55.359Z,51.03
2018-12-27T15:12:22.838Z,54.03
2018-12-27T15:14:50.548Z,53.23
2018-12-27T15:17:17.965Z,50.73
2018-12-27T15:19:45.535Z,53.80
2018-12-27T15:22:12.950Z,53.80
2018-12-27T15:24:40.504Z,55.57
2018-12-27T15:27:07.832Z,55.30
2018-12-27T15:29:35.276Z,53.30
2018-12-27T15:32:02.698Z,55.83
2018-12-27T15:34:30.147Z,55.27
2018-12-27T15:36:57.474Z,55.50
2018-12-27T15:39:25.100Z,56.30
2018-12-27T15:41:52.639Z,53.70
2018-12-27T15:44:20.118Z,56.47
2018-12-27T15:46:47.570Z,55.70
2018-12-27T15:49:15.050Z,55.97
2018-12-27T15:51:42.600Z,56.00
2018-12-27T15:54:10.049Z,57.50
2018-12-27T15:56:37.677Z,57.13
2018-12-27T15:59:06.716Z,58.60
2018-12-27T16:01:34.168Z,63.00
2018-12-27T16:04:01.728Z,64.90
2018-12-27T16:06:29.200Z,70.57
2018-12-27T16:09:01.510Z,68.87
2018-12-27T16:11:28.976Z,74.03
2018-12-27T16:13:58.027Z,71.90
2018-12-27T16:16:25.575Z,73.90
2018-12-27T16:18:53.087Z,77.87
2018-12-27T16:21:20.641Z,88.73
2018-12-27T16:23:49.837Z,83.10
2018-12-27T16:26:17.502Z,83.67
2018-12-27T16:28:48.031Z,80.07
2018-12-27T16:34:06.391Z,69.00
2018-12-27T16:36:38.061Z,68.43
2018-12-27T16:39:05.817Z,68.53
2018-12-27T16:41:34.289Z,70.70
2018-12-27T16:44:01.847Z,67.17
2018-12-27T16:46:29.367Z,63.73
2018-12-27T16:48:56.899Z,59.23
2018-12-27T16:51:26.269Z,59.93
2018-12-27T16:53:53.781Z,65.37
2018-12-27T16:56:21.334Z,64.97
2018-12-27T16:58:49.598Z,63.47
2018-12-27T17:01:17.121Z,61.73
2018-12-27T17:03:44.640Z,61.93
2018-12-27T17:06:12.257Z,64.03
2018-12-27T17:08:41.402Z,66.43
2018-12-27T17:11:13.502Z,63.57
2018-12-27T17:13:41.115Z,64.23
2018-12-27T17:16:08.737Z,60.13
2018-12-27T17:18:58.962Z,57.17
2018-12-27T17:21:30.787Z,60.20
2018-12-27T17:23:58.336Z,55.73
2018-12-27T17:26:29.515Z,56.43
2018-12-27T17:28:57.182Z,63.40
2018-12-27T17:31:30.073Z,65.10
2018-12-27T17:34:00.356Z,69.67
2018-12-27T17:36:32.400Z,68.30
2018-12-27T17:39:04.732Z,66.40
2018-12-27T17:41:37.098Z,66.13
2018-12-27T17:44:06.712Z,66.83
2018-12-27T17:46:33.968Z,67.30
2018-12-27T17:49:03.372Z,66.17
2018-12-27T17:51:33.268Z,72.47
2018-12-27T17:54:02.629Z,73.87
2018-12-27T17:56:33.694Z,82.37
2018-12-27T17:59:01.380Z,81.13
2018-12-27T18:01:30.664Z,79.27
2018-12-27T18:03:59.830Z,80.43
2018-12-27T18:06:29.052Z,82.17
2018-12-27T18:08:58.321Z,81.60
2018-12-27T18:11:43.086Z,80.63
2018-12-27T18:14:16.357Z,69.83
2018-12-27T18:16:45.654Z,66.20
2018-12-27T18:19:17.306Z,63.90
2018-12-27T18:21:54.077Z,58.43
2018-12-27T18:24:23.437Z,48.27
2018-12-27T18:26:53.768Z,51.07
2018-12-27T18:29:25.318Z,44.43
2018-12-27T18:32:01.340Z,37.57
2018-12-27T18:34:24.875Z,32.17
2018-12-27T18:36:56.094Z,35.93
2018-12-27T18:39:28.152Z,33.60
2018-12-27T18:41:55.772Z,34.10
2018-12-27T18:44:25.206Z,33.10
2018-12-27T18:46:56.546Z,32.13
2018-12-27T18:49:29.492Z,30.63
2018-12-27T18:52:08.787Z,29.03
2018-12-27T18:54:41.864Z,27.20
2018-12-27T18:57:09.851Z,25.53
2018-12-27T18:59:42.178Z,25.80
2018-12-27T19:02:15.964Z,27.37
2018-12-27T19:10:51.493Z,26.13
2018-12-27T19:16:34.946Z,22.53
2018-12-27T19:19:05.852Z,25.43
2018-12-27T19:21:34.758Z,24.80
2018-12-27T19:24:02.362Z,24.83
2018-12-27T19:26:29.888Z,24.37
2018-12-27T19:28:57.668Z,24.73
2018-12-27T19:31:28.061Z,23.40
2018-12-27T19:33:55.625Z,23.90
2018-12-27T19:36:31.065Z,21.83
2018-12-27T19:38:54.130Z,23.93
2018-12-27T19:41:22.391Z,23.40
2018-12-27T19:43:53.222Z,22.70
2018-12-27T19:46:20.790Z,21.20
2018-12-27T19:48:49.936Z,21.30
2018-12-27T19:51:19.200Z,21.67
2018-12-27T19:53:54.327Z,19.73
2018-12-27T19:56:19.332Z,20.97
2018-12-27T19:58:46.902Z,19.60
2018-12-27T20:01:17.485Z,20.10
2018-12-27T20:03:44.986Z,17.47
2018-12-27T20:06:12.771Z,18.67
2018-12-27T20:08:40.436Z,20.83
2018-12-27T20:11:07.992Z,23.87
2018-12-27T20:13:35.538Z,23.93
2018-12-27T20:16:03.128Z,25.70
2018-12-27T20:18:30.733Z,23.63
2018-12-27T20:20:58.606Z,22.87
2018-12-27T20:23:26.056Z,23.87
2018-12-27T20:25:53.546Z,24.90
2018-12-27T20:28:21.229Z,24.37
2018-12-27T20:30:48.928Z,24.63
2018-12-27T20:33:16.629Z,25.37
2018-12-27T20:35:44.147Z,26.30
2018-12-27T20:38:13.245Z,24.77
2018-12-27T20:40:40.735Z,25.97
2018-12-27T20:43:08.413Z,25.27
2018-12-27T20:45:35.924Z,24.80
2018-12-27T20:48:03.738Z,23.10
2018-12-27T20:50:31.450Z,23.07
2018-12-27T20:52:58.881Z,22.37
2018-12-27T20:55:26.392Z,23.47
2018-12-27T20:57:53.880Z,26.77
2018-12-27T21:00:21.322Z,25.40
2018-12-27T21:02:48.853Z,24.73
2018-12-27T21:05:16.365Z,20.13
2018-12-27T21:07:43.769Z,20.37
2018-12-27T21:10:11.482Z,19.10
2018-12-27T21:12:39.069Z,19.20
2018-12-27T21:15:06.528Z,22.27
2018-12-27T21:17:34.088Z,21.87
2018-12-27T21:20:01.669Z,21.00
2018-12-27T21:22:30.287Z,21.00
2018-12-27T21:24:58.154Z,22.03
2018-12-27T21:27:25.740Z,21.27
2018-12-27T21:29:53.323Z,21.77
2018-12-27T21:32:21.210Z,20.83
2018-12-27T21:34:48.769Z,19.60
2018-12-27T21:37:16.285Z,18.67
2018-12-27T21:39:43.785Z,19.83
2018-12-27T21:42:11.242Z,19.67
2018-12-27T21:44:38.684Z,19.90
2018-12-27T21:47:06.250Z,17.33
2018-12-27T21:49:33.806Z,17.70
2018-12-27T21:52:01.311Z,17.47
2018-12-27T21:54:29.631Z,18.80
2018-12-27T21:56:57.242Z,18.73
2018-12-27T21:59:26.333Z,19.03
2018-12-27T22:01:53.800Z,19.50
2018-12-27T22:04:21.341Z,18.70
2018-12-27T22:06:48.898Z,19.67
2018-12-27T22:09:16.335Z,19.87
2018-12-27T22:11:44.026Z,21.50
2018-12-27T22:14:11.478Z,21.53
2018-12-27T22:16:38.830Z,24.03
2018-12-27T22:19:06.330Z,24.53
2018-12-27T22:21:33.775Z,27.60
2018-12-27T22:24:01.304Z,27.93
2018-12-27T22:26:28.847Z,34.00
2018-12-27T22:28:56.306Z,46.33
2018-12-27T22:31:23.946Z,60.60
2018-12-27T22:33:51.393Z,66.77
2018-12-27T22:36:18.872Z,68.07
2018-12-27T22:38:46.300Z,69.20
2018-12-27T22:41:16.793Z,55.33
2018-12-27T22:43:44.313Z,41.47
2018-12-27T22:46:11.923Z,37.37
2018-12-27T22:48:39.456Z,31.87
2018-12-27T22:51:06.961Z,29.87
2018-12-27T22:53:34.433Z,26.37
2018-12-27T22:56:02.015Z,27.53
2018-12-27T22:58:29.883Z,25.47
2018-12-27T23:00:57.411Z,33.00
2018-12-27T23:03:24.894Z,33.80
2018-12-27T23:05:52.499Z,29.17
2018-12-27T23:08:20.012Z,27.00
2018-12-27T23:10:49.116Z,25.57
2018-12-27T23:13:16.641Z,25.43
2018-12-27T23:15:44.103Z,25.17
2018-12-27T23:18:13.239Z,23.97
2018-12-27T23:20:40.629Z,25.80
2018-12-27T23:23:08.137Z,27.37
2018-12-27T23:25:37.119Z,27.00
2018-12-27T23:28:04.493Z,27.47
2018-12-27T23:30:31.967Z,26.83
2018-12-27T23:32:59.422Z,25.57
2018-12-27T23:35:26.858Z,24.83
2018-12-27T23:37:54.404Z,24.47
2018-12-27T23:40:21.973Z,25.00
2018-12-27T23:42:50.723Z,22.30
2018-12-27T23:45:19.847Z,23.57
2018-12-27T23:47:47.374Z,23.77
2018-12-27T23:50:14.844Z,24.63
2018-12-27T23:52:42.363Z,24.17
2018-12-27T23:55:11.420Z,24.93
2018-12-27T23:57:39.833Z,23.17
